Time;durP1;ratioP1;P1;durP2;ratioP2;P2;SDS_P1;SDS_P2;PMS_P1;PMS_P2;Temp;Humidity;BMP_temperature;BMP_pressure;BME280_temperature;BME280_humidity;BME280_pressure;Samples;Min_cycle;Max_cycle;Signal;HPM_P1;HPM_P2
2021/04/04 00:01:05;;;;;;;10.37;5.47;;;;;;;7.84;41.43;98525.94;8341415;28;20201;-85
2021/04/04 00:05:10;;;;;;;8.13;5.03;;;;;;;7.92;41.50;98539.53;8343057;28;20205;-85
2021/04/04 00:09:15;;;;;;;8.83;4.93;;;;;;;8.00;41.20;98545.34;8344295;28;20208;-85
2021/04/04 00:13:18;;;;;;;10.83;5.90;;;;;;;7.95;41.29;98536.84;8343710;28;20204;-85
2021/04/04 00:17:20;;;;;;;10.13;5.27;;;;;;;7.92;41.72;98544.69;8343198;28;20226;-85
2021/04/04 00:21:23;;;;;;;14.60;5.60;;;;;;;7.78;42.26;98539.00;8343226;28;20208;-85
2021/04/04 00:25:25;;;;;;;8.77;5.27;;;;;;;7.81;41.96;98528.63;8342990;28;20205;-85
2021/04/04 00:29:29;;;;;;;10.83;5.97;;;;;;;7.82;41.61;98514.84;8342972;28;20228;-85
2021/04/04 00:33:31;;;;;;;9.63;5.37;;;;;;;7.86;41.74;98525.91;8343840;28;20649;-84
2021/04/04 00:37:33;;;;;;;9.90;5.43;;;;;;;8.00;41.91;98524.69;8341832;28;20200;-84
2021/04/04 00:41:36;;;;;;;10.90;5.30;;;;;;;7.96;41.78;98524.81;8342004;28;20207;-84
2021/04/04 00:45:40;;;;;;;9.13;4.87;;;;;;;7.90;41.89;98518.09;8342103;28;20568;-84
2021/04/04 00:49:42;;;;;;;8.93;4.93;;;;;;;7.71;42.73;98511.66;8341516;28;20247;-85
2021/04/04 00:53:45;;;;;;;7.93;4.90;;;;;;;7.81;42.44;98514.00;8340916;28;20255;-85
2021/04/04 00:57:49;;;;;;;8.80;5.27;;;;;;;7.86;42.51;98513.03;8355356;28;20201;-84
2021/04/04 01:01:52;;;;;;;7.00;5.00;;;;;;;7.80;42.70;98512.28;8338524;28;20718;-83
2021/04/04 01:05:56;;;;;;;9.73;5.50;;;;;;;7.87;42.47;98507.84;8338935;28;20578;-84
2021/04/04 01:09:58;;;;;;;7.23;5.07;;;;;;;7.89;42.55;98508.66;8340096;28;20231;-84
2021/04/04 01:14:08;;;;;;;10.47;5.57;;;;;;;7.85;42.46;98504.44;8340727;28;20239;-84
2021/04/04 01:18:17;;;;;;;6.87;4.50;;;;;;;7.92;42.66;98513.75;8341921;28;20566;-84
2021/04/04 01:22:32;;;;;;;8.03;4.90;;;;;;;7.75;42.81;98508.13;8338328;28;20212;-84
2021/04/04 01:26:42;;;;;;;10.13;5.20;;;;;;;7.81;43.03;98500.25;8352795;28;20204;-84
2021/04/04 01:30:48;;;;;;;8.77;5.07;;;;;;;7.87;43.15;98509.59;8337518;28;20212;-84
2021/04/04 01:34:51;;;;;;;11.47;5.23;;;;;;;7.81;43.10;98503.69;8335869;28;20227;-84
2021/04/04 01:38:53;;;;;;;10.33;5.10;;;;;;;7.81;43.36;98505.41;8335808;28;20200;-84
2021/04/04 01:42:56;;;;;;;8.37;5.10;;;;;;;7.76;43.58;98504.69;8337050;28;20208;-84
2021/04/04 01:47:00;;;;;;;8.50;4.80;;;;;;;7.84;43.15;98502.75;8333579;28;20235;-84
2021/04/04 01:51:03;;;;;;;8.20;5.23;;;;;;;7.79;43.78;98495.13;8335233;28;20236;-84
2021/04/04 01:55:06;;;;;;;10.23;5.00;;;;;;;7.78;43.70;98496.00;8364000;28;20216;-84
2021/04/04 01:59:10;;;;;;;13.10;5.27;;;;;;;7.75;43.58;98490.94;8346873;28;20207;-83
2021/04/04 02:03:14;;;;;;;10.33;5.27;;;;;;;7.76;43.62;98490.03;8343406;28;20648;-83
2021/04/04 02:07:16;;;;;;;9.67;5.30;;;;;;;7.74;43.83;98496.13;8344443;28;20212;-84
2021/04/04 02:11:20;;;;;;;7.87;4.63;;;;;;;7.77;44.07;98496.06;8342680;28;20601;-83
2021/04/04 02:15:26;;;;;;;11.17;5.33;;;;;;;7.76;44.31;98499.53;8344008;28;20648;-83
2021/04/04 02:19:29;;;;;;;13.00;5.30;;;;;;;7.69;44.35;98497.97;8342208;28;20200;-83
2021/04/04 02:23:32;;;;;;;7.30;4.67;;;;;;;7.68;44.19;98488.56;8344994;28;20209;-84
2021/04/04 02:27:34;;;;;;;8.23;4.83;;;;;;;7.67;44.26;98492.84;8343701;28;20213;-83
2021/04/04 02:31:38;;;;;;;10.03;4.60;;;;;;;7.61;44.36;98491.25;8342357;28;20208;-83
2021/04/04 02:35:43;;;;;;;10.63;5.23;;;;;;;7.64;44.38;98491.19;8342889;28;20209;-84
2021/04/04 02:39:48;;;;;;;7.63;4.80;;;;;;;7.63;44.63;98486.94;8355901;28;20200;-83
2021/04/04 02:43:54;;;;;;;7.87;4.80;;;;;;;7.67;44.70;98494.59;8371093;28;20216;-83
2021/04/04 02:47:58;;;;;;;6.83;4.83;;;;;;;7.63;44.52;98498.97;8371672;28;20223;-83
2021/04/04 02:52:06;;;;;;;9.23;4.87;;;;;;;7.55;44.88;98503.47;8373613;28;20246;-83
2021/04/04 02:56:10;;;;;;;11.93;4.97;;;;;;;7.69;44.58;98492.81;8366073;28;20189;-84
2021/04/04 03:00:14;;;;;;;6.90;4.70;;;;;;;7.57;44.40;98491.38;8346980;28;20204;-83
2021/04/04 03:04:16;;;;;;;8.90;4.80;;;;;;;7.59;44.05;98477.56;8348992;28;20208;-83
2021/04/04 03:08:20;;;;;;;12.80;5.13;;;;;;;7.66;44.19;98490.31;8349409;28;20224;-83
2021/04/04 03:12:24;;;;;;;9.43;5.40;;;;;;;7.54;44.29;98487.16;8349729;28;20208;-84
2021/04/04 03:16:26;;;;;;;11.53;5.27;;;;;;;7.52;44.45;98488.94;8349606;28;20204;-83
2021/04/04 03:20:29;;;;;;;8.57;5.00;;;;;;;7.44;44.85;98476.22;8349090;28;20217;-83
2021/04/04 03:24:32;;;;;;;10.97;5.47;;;;;;;7.48;44.89;98483.84;8349336;28;20208;-83
2021/04/04 03:28:34;;;;;;;8.90;5.30;;;;;;;7.37;45.05;98491.88;8348225;28;20235;-83
2021/04/04 03:32:38;;;;;;;10.27;5.27;;;;;;;7.18;45.23;98484.53;8347318;28;20208;-83
2021/04/04 03:36:40;;;;;;;9.50;5.13;;;;;;;7.27;45.13;98478.31;8348738;28;20263;-83
2021/04/04 03:40:43;;;;;;;8.43;5.37;;;;;;;7.20;45.34;98485.34;8347737;28;20199;-83
2021/04/04 03:44:45;;;;;;;11.50;5.70;;;;;;;7.08;45.47;98493.34;8347363;28;20538;-83
2021/04/04 03:48:48;;;;;;;10.30;5.53;;;;;;;7.07;45.62;98489.09;8355466;28;20240;-84
2021/04/04 03:52:51;;;;;;;9.73;5.50;;;;;;;6.97;45.92;98497.91;8357494;28;20209;-83
2021/04/04 03:56:55;;;;;;;10.77;5.90;;;;;;;6.93;46.16;98498.81;8358410;28;20205;-83
2021/04/04 04:00:58;;;;;;;9.33;5.77;;;;;;;6.86;46.12;98490.38;8357374;28;20204;-84
2021/04/04 04:05:01;;;;;;;10.60;5.13;;;;;;;6.69;46.66;98488.16;8353899;28;20204;-83
2021/04/04 04:09:04;;;;;;;13.50;6.00;;;;;;;6.79;46.42;98487.06;8340348;28;20220;-84
2021/04/04 04:13:08;;;;;;;8.50;5.70;;;;;;;6.81;45.97;98493.03;8337569;28;20197;-84
2021/04/04 04:17:10;;;;;;;9.93;5.43;;;;;;;6.75;46.12;98492.34;8341787;28;20212;-83
2021/04/04 04:21:12;;;;;;;8.37;5.30;;;;;;;6.57;46.31;98489.25;8370169;28;20208;-84
2021/04/04 04:25:15;;;;;;;8.33;5.23;;;;;;;6.49;46.03;98472.25;8338959;28;20204;-85
2021/04/04 04:29:21;;;;;;;7.57;5.30;;;;;;;6.59;46.69;98484.09;8338247;28;20240;-85
2021/04/04 04:33:24;;;;;;;10.13;5.13;;;;;;;6.54;47.12;98483.31;8338871;28;20199;-85
2021/04/04 04:37:27;;;;;;;11.30;5.23;;;;;;;6.42;47.70;98484.41;8336846;28;20255;-84
2021/04/04 04:41:32;;;;;;;8.57;4.93;;;;;;;6.28;48.20;98478.66;8338077;28;20204;-85
2021/04/04 04:45:37;;;;;;;10.53;5.17;;;;;;;6.40;47.56;98483.59;8337917;28;20204;-85
2021/04/04 04:49:43;;;;;;;10.63;5.67;;;;;;;6.39;47.69;98476.75;8337903;28;20240;-85
2021/04/04 04:53:46;;;;;;;11.43;5.53;;;;;;;6.38;47.29;98469.91;8338698;28;20195;-85
2021/04/04 04:57:49;;;;;;;10.67;5.87;;;;;;;6.33;47.42;98467.41;8312457;28;20217;-85
2021/04/04 05:01:53;;;;;;;10.57;6.30;;;;;;;6.35;47.04;98485.41;8305510;28;20201;-85
2021/04/04 05:05:59;;;;;;;10.37;5.80;;;;;;;6.42;46.26;98471.56;8304638;28;20957;-85
2021/04/04 05:10:05;;;;;;;9.23;5.33;;;;;;;6.15;46.87;98475.47;8303830;28;20217;-85
2021/04/04 05:14:10;;;;;;;9.57;5.50;;;;;;;6.30;46.15;98470.03;8303629;28;20213;-82
2021/04/04 05:18:12;;;;;;;9.70;5.40;;;;;;;6.40;46.60;98473.31;8306023;28;20213;-82
2021/04/04 05:22:15;;;;;;;11.97;6.17;;;;;;;6.44;46.28;98475.78;8306514;28;20204;-82
2021/04/04 05:26:17;;;;;;;11.77;7.80;;;;;;;6.68;45.50;98472.75;8306411;28;20213;-82
2021/04/04 05:30:21;;;;;;;16.17;9.33;;;;;;;6.85;45.11;98481.81;8306652;28;20267;-83
2021/04/04 05:34:26;;;;;;;16.43;9.80;;;;;;;7.08;44.61;98469.31;8306961;28;20212;-83
2021/04/04 05:38:28;;;;;;;14.97;9.13;;;;;;;7.25;44.23;98472.34;8308073;28;20205;-83
2021/04/04 05:42:34;;;;;;;19.63;11.53;;;;;;;7.54;43.31;98473.41;8308743;28;20597;-82
2021/04/04 05:46:38;;;;;;;20.63;9.83;;;;;;;7.92;42.95;98472.47;8307741;28;20185;-83
2021/04/04 05:50:50;;;;;;;14.87;8.50;;;;;;;8.10;42.03;98475.47;8307631;28;20704;-83
2021/04/04 05:55:16;;;;;;;17.33;8.50;;;;;;;8.36;41.82;98475.63;8317981;28;20216;-83
2021/04/04 05:59:27;;;;;;;14.03;7.97;;;;;;;8.58;41.02;98470.72;8341472;28;20235;-80
2021/04/04 06:03:57;;;;;;;12.33;7.83;;;;;;;9.04;40.18;98467.69;8343439;28;20192;-80
2021/04/04 06:08:36;;;;;;;11.70;6.87;;;;;;;8.97;40.53;98482.53;8321419;28;20204;-79
2021/04/04 06:13:03;;;;;;;11.30;6.03;;;;;;;9.33;40.44;98484.91;8335957;28;20216;-80
2021/04/04 06:17:11;;;;;;;11.70;5.97;;;;;;;9.73;40.14;98487.06;8336269;28;20238;-80
2021/04/04 06:21:20;;;;;;;17.90;6.10;;;;;;;10.01;39.93;98488.72;8334700;28;20207;-83
2021/04/04 06:25:31;;;;;;;11.23;5.83;;;;;;;10.24;39.39;98490.53;8339220;28;20197;-79
2021/04/04 06:29:39;;;;;;;12.90;6.60;;;;;;;10.31;38.84;98484.28;8340883;28;20220;-79
2021/04/04 06:33:41;;;;;;;14.00;6.03;;;;;;;10.41;38.54;98494.31;8339677;28;20242;-79
2021/04/04 06:38:03;;;;;;;10.87;5.40;;;;;;;10.62;38.59;98487.50;8309634;28;20196;-79
2021/04/04 06:42:12;;;;;;;12.20;5.87;;;;;;;11.10;37.83;98474.50;8313971;28;20192;-78
2021/04/04 06:46:37;;;;;;;9.50;5.77;;;;;;;11.08;38.53;98478.91;8328967;28;20282;-78
2021/04/04 06:50:45;;;;;;;11.90;5.47;;;;;;;11.28;38.47;98488.47;8304432;28;20245;-79
2021/04/04 06:54:58;;;;;;;12.17;5.30;;;;;;;10.43;40.13;98498.53;8305631;28;20664;-82
2021/04/04 06:59:08;;;;;;;9.60;5.40;;;;;;;11.46;38.39;98480.88;8322070;28;20201;-82
2021/04/04 07:03:13;;;;;;;9.47;5.13;;;;;;;11.80;37.45;98482.94;8304977;28;20209;-82
2021/04/04 07:07:41;;;;;;;9.03;5.17;;;;;;;11.29;38.04;98489.31;8304767;28;20209;-82
2021/04/04 07:11:52;;;;;;;9.50;5.80;;;;;;;11.01;39.58;98495.56;8305074;28;20220;-82
2021/04/04 07:16:06;;;;;;;10.73;5.90;;;;;;;11.25;38.73;98487.75;8305858;28;20208;-82
2021/04/04 07:20:34;;;;;;;11.40;5.70;;;;;;;11.73;37.80;98497.94;8306250;28;20193;-81
2021/04/04 07:24:57;;;;;;;12.20;5.87;;;;;;;12.55;37.39;98491.94;8305178;28;20642;-84
2021/04/04 07:29:19;;;;;;;11.87;5.60;;;;;;;13.04;36.00;98491.47;8307916;28;20230;-84
2021/04/04 07:33:30;;;;;;;12.63;5.33;;;;;;;13.18;35.94;98503.88;8311051;28;20197;-83
2021/04/04 07:37:38;;;;;;;8.47;5.20;;;;;;;13.43;35.30;98490.56;8323048;28;20197;-84
2021/04/04 07:41:46;;;;;;;8.57;5.43;;;;;;;13.61;34.98;98491.44;8312595;28;20576;-83
2021/04/04 07:45:54;;;;;;;9.77;4.83;;;;;;;13.43;34.63;98503.59;8336107;28;20208;-84
2021/04/04 07:49:59;;;;;;;9.63;5.53;;;;;;;13.77;34.57;98509.78;8318367;28;20263;-83
2021/04/04 07:54:04;;;;;;;8.97;6.07;;;;;;;14.08;34.30;98483.06;8324865;28;20208;-83
2021/04/04 07:58:13;;;;;;;8.97;5.63;;;;;;;14.36;33.41;98489.47;8316954;28;20216;-83
2021/04/04 08:02:19;;;;;;;8.43;5.03;;;;;;;15.07;33.05;98488.38;8313400;28;20212;-83
2021/04/04 08:06:24;;;;;;;9.33;5.10;;;;;;;15.16;31.74;98490.50;8310410;28;20260;-82
2021/04/04 08:10:30;;;;;;;8.50;5.10;;;;;;;15.08;31.57;98492.66;8315187;28;20271;-83
2021/04/04 08:14:39;;;;;;;11.83;5.13;;;;;;;15.55;31.39;98495.25;8314849;28;20648;-83
2021/04/04 08:18:41;;;;;;;11.67;4.90;;;;;;;15.63;31.02;98489.59;8309196;28;20213;-83
2021/04/04 08:22:55;;;;;;;13.13;5.20;;;;;;;15.53;30.31;98491.06;8309546;28;20216;-83
2021/04/04 08:27:02;;;;;;;11.87;5.07;;;;;;;15.91;30.61;98493.28;8311710;28;20259;-83
2021/04/04 08:31:12;;;;;;;8.67;4.80;;;;;;;16.26;29.46;98496.47;8311053;28;20213;-83
2021/04/04 08:35:20;;;;;;;8.93;5.13;;;;;;;16.36;29.32;98497.59;8310436;28;20240;-84
2021/04/04 08:39:25;;;;;;;10.00;5.37;;;;;;;16.32;28.82;98490.88;8319057;28;20221;-84
2021/04/04 08:43:28;;;;;;;8.73;4.60;;;;;;;16.85;28.97;98482.50;8339553;28;20294;-84
2021/04/04 08:47:32;;;;;;;11.23;4.63;;;;;;;17.09;28.04;98469.66;8340781;28;20208;-83
2021/04/04 08:51:37;;;;;;;9.23;4.60;;;;;;;17.61;27.89;98482.06;8331053;28;20244;-81
2021/04/04 08:55:44;;;;;;;9.27;4.40;;;;;;;17.79;27.42;98490.47;8346528;28;20207;-82
2021/04/04 08:59:49;;;;;;;9.23;4.43;;;;;;;17.79;26.39;98480.81;8345359;28;20564;-81
2021/04/04 09:03:55;;;;;;;7.07;4.20;;;;;;;18.02;26.78;98478.50;8350447;28;20200;-84
2021/04/04 09:07:59;;;;;;;8.57;4.00;;;;;;;18.33;25.35;98472.06;8366020;28;20200;-81
2021/04/04 09:12:03;;;;;;;6.83;3.03;;;;;;;18.57;24.80;98466.06;8345298;28;20580;-84
2021/04/04 09:16:10;;;;;;;6.03;3.40;;;;;;;18.79;24.50;98475.91;8347813;28;20204;-85
2021/04/04 09:20:15;;;;;;;6.43;3.70;;;;;;;18.76;24.33;98461.19;8348144;28;20231;-84
2021/04/04 09:24:17;;;;;;;11.73;4.10;;;;;;;18.92;24.48;98471.50;8349107;28;20224;-83
2021/04/04 09:28:21;;;;;;;8.03;4.27;;;;;;;19.31;24.04;98466.13;8344776;28;20209;-83
2021/04/04 09:32:31;;;;;;;5.37;3.50;;;;;;;19.06;23.35;98465.28;8329731;28;20208;-83
2021/04/04 09:36:41;;;;;;;5.80;3.20;;;;;;;19.39;22.93;98462.94;8334164;28;20200;-84
2021/04/04 09:40:44;;;;;;;5.27;3.00;;;;;;;19.23;21.79;98455.31;8331184;28;20209;-84
2021/04/04 09:44:49;;;;;;;8.73;3.87;;;;;;;19.46;21.95;98459.75;8347603;28;20352;-83
2021/04/04 09:48:51;;;;;;;10.37;5.37;;;;;;;19.59;20.81;98440.47;8372886;28;20311;-84
2021/04/04 09:52:54;;;;;;;10.10;5.57;;;;;;;19.73;20.52;98443.78;8321226;28;20200;-85
2021/04/04 09:56:57;;;;;;;20.03;5.30;;;;;;;19.87;21.28;98449.78;8329841;28;20593;-84
2021/04/04 10:01:02;;;;;;;25.87;7.73;;;;;;;20.20;20.30;98450.81;8341346;28;20258;-84
2021/04/04 10:05:05;;;;;;;11.07;4.20;;;;;;;18.44;21.64;98439.00;8342484;28;20648;-83
2021/04/04 10:09:09;;;;;;;9.70;4.83;;;;;;;18.13;22.97;98439.31;8313613;28;20229;-83
2021/04/04 10:13:12;;;;;;;19.93;4.47;;;;;;;19.54;21.33;98439.03;8330181;28;20204;-84
2021/04/04 10:17:16;;;;;;;8.37;4.50;;;;;;;19.95;20.51;98429.03;8308602;28;20205;-85
2021/04/04 10:21:18;;;;;;;7.57;4.10;;;;;;;18.80;21.29;98422.50;8305798;28;20212;-85
2021/04/04 10:25:21;;;;;;;7.30;3.80;;;;;;;17.89;22.90;98426.06;8304279;28;20212;-85
2021/04/04 10:29:26;;;;;;;9.40;4.30;;;;;;;19.15;21.99;98419.13;8306517;28;20232;-85
2021/04/04 10:33:30;;;;;;;9.37;4.03;;;;;;;20.05;20.60;98409.00;8306805;28;20197;-85
2021/04/04 10:37:32;;;;;;;10.20;4.60;;;;;;;19.65;20.83;98401.47;8305075;28;20209;-85
2021/04/04 10:41:36;;;;;;;11.40;4.10;;;;;;;20.19;20.65;98396.59;8306070;28;20200;-85
2021/04/04 10:46:06;;;;;;;18.93;9.53;;;;;;;20.03;20.63;98399.53;8303864;28;20193;-85
2021/04/04 10:50:13;;;;;;;8.17;4.50;;;;;;;20.46;20.37;98393.59;8303680;28;20240;-85
2021/04/04 10:54:15;;;;;;;10.47;4.30;;;;;;;18.79;22.43;98383.22;8304852;28;20676;-85
2021/04/04 10:58:21;;;;;;;11.00;5.07;;;;;;;18.60;22.99;98383.69;8325501;28;20259;-84
2021/04/04 11:02:24;;;;;;;9.63;4.33;;;;;;;18.06;23.81;98379.56;8337435;28;20208;-85
2021/04/04 11:06:27;;;;;;;9.30;4.77;;;;;;;17.50;24.10;98382.41;8323317;28;20212;-84
2021/04/04 11:10:30;;;;;;;8.70;4.17;;;;;;;16.90;25.32;98366.16;8314032;28;20247;-84
2021/04/04 11:14:32;;;;;;;8.93;4.60;;;;;;;17.70;23.89;98365.34;8336407;28;20215;-84
2021/04/04 11:18:38;;;;;;;11.47;5.33;;;;;;;18.48;23.72;98367.03;8311593;28;20284;-84
2021/04/04 11:22:41;;;;;;;10.03;4.87;;;;;;;17.58;23.91;98370.47;8335200;28;20205;-84
2021/04/04 11:26:48;;;;;;;10.00;4.87;;;;;;;18.33;22.42;98354.06;8333534;28;20185;-85
2021/04/04 11:30:52;;;;;;;7.07;4.40;;;;;;;17.48;23.61;98361.56;8318649;28;20224;-85
2021/04/04 11:34:58;;;;;;;8.37;4.50;;;;;;;17.14;24.09;98358.53;8328292;28;20649;-85
2021/04/04 11:39:11;;;;;;;10.47;4.40;;;;;;;16.63;23.98;98333.91;8313053;28;20201;-85
2021/04/04 11:43:28;;;;;;;9.77;4.40;;;;;;;18.17;23.83;98345.59;8309932;28;20582;-85
2021/04/04 11:47:31;;;;;;;8.23;4.50;;;;;;;17.78;23.45;98349.94;8313382;28;20727;-86
2021/04/04 11:51:33;;;;;;;9.13;4.47;;;;;;;17.26;23.92;98342.97;8314138;28;20237;-86
2021/04/04 11:55:48;;;;;;;9.67;4.70;;;;;;;18.69;22.98;98327.94;8315831;28;20201;-86
2021/04/04 11:59:52;;;;;;;9.63;4.47;;;;;;;18.25;23.95;98332.78;8314116;28;20186;-86
2021/04/04 12:03:54;;;;;;;11.07;4.40;;;;;;;19.08;22.85;98326.88;8312639;28;20213;-84
2021/04/04 12:07:57;;;;;;;8.70;4.78;;;;;;;19.26;21.92;98323.84;8311028;28;20836;-84
2021/04/04 12:12:01;;;;;;;10.93;4.53;;;;;;;19.13;20.71;98313.41;8312801;28;20225;-84
2021/04/04 12:16:05;;;;;;;9.57;4.07;;;;;;;19.70;20.74;98306.50;8311298;28;20291;-84
2021/04/04 12:20:09;;;;;;;8.10;4.27;;;;;;;19.68;20.28;98301.38;8313397;28;20630;-84
2021/04/04 12:24:11;;;;;;;12.60;5.17;;;;;;;18.76;21.45;98298.53;8312243;28;20216;-84
2021/04/04 12:28:15;;;;;;;8.63;4.50;;;;;;;19.09;21.43;98299.66;8311059;28;20201;-83
2021/04/04 12:32:21;;;;;;;11.57;4.60;;;;;;;19.32;21.98;98281.38;8310694;28;20225;-84
2021/04/04 12:36:24;;;;;;;12.33;5.20;;;;;;;18.32;21.86;98273.72;8312527;28;20197;-84
2021/04/04 12:40:26;;;;;;;12.27;5.13;;;;;;;18.05;22.64;98266.03;8311171;28;20679;-84
2021/04/04 12:44:33;;;;;;;10.70;4.57;;;;;;;17.78;23.03;98263.50;8310456;28;20305;-84
2021/04/04 12:48:40;;;;;;;11.90;4.80;;;;;;;17.66;22.88;98265.19;8312548;28;20244;-85
2021/04/04 12:52:44;;;;;;;11.67;4.60;;;;;;;17.24;23.42;98266.34;8312296;28;20664;-84
2021/04/04 12:56:47;;;;;;;11.70;4.73;;;;;;;18.16;23.43;98246.91;8311188;28;20208;-87
2021/04/04 13:00:51;;;;;;;7.80;4.60;;;;;;;18.46;22.80;98254.38;8292745;28;20247;-85
2021/04/04 13:04:57;;;;;;;13.17;5.40;;;;;;;18.84;20.99;98257.81;8309436;28;20722;-87
2021/04/04 13:09:00;;;;;;;10.67;5.10;;;;;;;19.32;21.11;98248.09;8319720;28;20212;-85
2021/04/04 13:13:12;;;;;;;8.43;4.27;;;;;;;19.49;20.97;98240.69;8341046;28;20537;-85
2021/04/04 13:17:16;;;;;;;12.60;5.03;;;;;;;19.60;20.39;98234.63;8341839;28;20200;-85
2021/04/04 13:21:20;;;;;;;13.82;6.00;;;;;;;19.99;20.02;98230.72;8324444;28;20416;-85
2021/04/04 13:25:23;;;;;;;11.50;5.30;;;;;;;19.33;20.55;98222.66;8312462;28;20231;-85
2021/04/04 13:29:37;;;;;;;13.43;4.73;;;;;;;18.70;21.69;98225.53;8311366;28;20229;-85
2021/04/04 13:33:40;;;;;;;11.70;5.17;;;;;;;19.16;21.96;98216.06;8310154;28;20252;-85
2021/04/04 13:37:44;;;;;;;13.17;5.77;;;;;;;19.05;21.04;98205.53;8306238;28;20543;-85
2021/04/04 13:41:47;;;;;;;11.13;5.00;;;;;;;19.64;21.43;98210.63;8303700;28;20204;-85
2021/04/04 13:45:49;;;;;;;10.93;4.63;;;;;;;19.57;21.18;98198.91;8319847;28;20205;-85
2021/04/04 13:49:53;;;;;;;10.40;5.18;;;;;;;19.86;20.76;98204.56;8332971;28;20488;-84
2021/04/04 13:54:08;;;;;;;11.17;4.93;;;;;;;19.70;20.35;98193.53;8312869;28;20662;-84
2021/04/04 13:58:29;;;;;;;12.73;5.30;;;;;;;19.11;20.93;98194.56;8341463;28;20205;-85
2021/04/04 14:02:31;;;;;;;9.80;5.77;;;;;;;19.50;20.96;98174.09;8347447;28;20204;-85
2021/04/04 14:06:37;;;;;;;11.57;4.97;;;;;;;19.59;20.70;98164.66;8329621;28;20326;-86
2021/04/04 14:10:40;;;;;;;9.77;4.83;;;;;;;19.65;21.02;98172.06;8346479;28;20238;-86
2021/04/04 14:14:45;;;;;;;9.63;4.53;;;;;;;19.41;20.23;98161.69;8346771;28;20207;-86
2021/04/04 14:18:50;;;;;;;10.67;5.00;;;;;;;19.31;21.79;98151.06;8346820;28;20205;-85
2021/04/04 14:22:53;;;;;;;9.30;4.60;;;;;;;19.17;22.08;98157.34;8349312;28;20201;-85
2021/04/04 14:26:55;;;;;;;9.97;4.87;;;;;;;19.15;22.09;98151.38;8349996;28;20239;-86
2021/04/04 14:30:58;;;;;;;11.07;5.33;;;;;;;19.02;22.37;98140.13;8362203;28;20228;-85
2021/04/04 14:35:00;;;;;;;11.90;4.70;;;;;;;19.07;22.38;98136.22;8365140;28;20271;-85
2021/04/04 14:39:04;;;;;;;9.13;4.70;;;;;;;18.85;22.47;98133.53;8365576;28;20205;-85
2021/04/04 14:47:26;;;;;;;19.47;4.60;;;;;;;19.03;32.79;98140.03;8371079;28;20196;-88
2021/04/04 14:51:28;;;;;;;14.17;4.83;;;;;;;19.06;26.85;98110.09;8344283;28;20229;-86
2021/04/04 14:55:46;;;;;;;10.43;4.30;;;;;;;18.72;24.80;98116.09;8333275;28;20204;-86
2021/04/04 14:59:48;;;;;;;10.97;4.43;;;;;;;18.70;23.97;98122.41;8331868;28;20667;-86
2021/04/04 15:03:50;;;;;;;9.47;5.00;;;;;;;18.78;23.40;98116.59;8310950;28;20200;-87
2021/04/04 15:07:52;;;;;;;8.60;4.30;;;;;;;18.64;22.45;98114.97;8305013;28;20230;-85
2021/04/04 15:11:56;;;;;;;11.30;4.50;;;;;;;18.72;22.81;98116.09;8341284;28;20250;-85
2021/04/04 15:16:00;;;;;;;11.40;5.07;;;;;;;18.55;22.75;98103.41;8346233;28;20208;-86
2021/04/04 15:20:03;;;;;;;12.20;4.43;;;;;;;18.37;22.22;98095.09;8343847;28;20224;-86
2021/04/04 15:24:06;;;;;;;15.50;4.80;;;;;;;18.06;22.50;98089.50;8341227;28;20211;-84
2021/04/04 15:28:10;;;;;;;9.20;4.63;;;;;;;17.73;23.11;98088.34;8337464;28;20207;-84
2021/04/04 15:32:12;;;;;;;13.20;5.23;;;;;;;17.56;23.21;98084.31;8341783;28;20224;-85
2021/04/04 15:36:15;;;;;;;10.00;4.37;;;;;;;17.86;22.96;98064.78;8341430;28;20212;-86
2021/04/04 15:40:24;;;;;;;11.77;5.17;;;;;;;17.85;23.23;98080.59;8339378;28;20243;-86
2021/04/04 15:44:28;;;;;;;11.13;5.23;;;;;;;17.77;23.05;98068.84;8341977;28;20189;-86
2021/04/04 15:48:37;;;;;;;12.57;6.27;;;;;;;17.87;23.64;98061.19;8340388;28;20272;-86
2021/04/04 15:52:43;;;;;;;12.27;5.20;;;;;;;17.40;24.17;98060.16;8345579;28;20315;-86
2021/04/04 15:56:46;;;;;;;9.87;4.93;;;;;;;17.18;24.50;98058.22;8345367;28;20208;-86
2021/04/04 16:00:49;;;;;;;10.07;5.10;;;;;;;16.94;25.33;98052.91;8343542;28;20205;-86
2021/04/04 16:04:51;;;;;;;10.10;4.80;;;;;;;16.93;24.93;98046.84;8358507;28;20243;-86
2021/04/04 16:08:54;;;;;;;11.03;4.70;;;;;;;16.41;25.49;98043.38;8340388;28;20648;-86
2021/04/04 16:12:58;;;;;;;11.23;4.77;;;;;;;16.71;25.98;98038.78;8345670;28;20204;-85
2021/04/04 16:17:02;;;;;;;14.07;5.20;;;;;;;16.71;25.42;98030.94;8371024;28;20204;-84
2021/04/04 16:21:04;;;;;;;10.00;5.53;;;;;;;16.50;25.28;98028.00;8349102;28;20220;-84
2021/04/04 16:25:22;;;;;;;11.67;4.67;;;;;;;16.35;25.85;98019.41;8350438;28;20220;-83
2021/04/04 16:29:24;;;;;;;12.27;4.97;;;;;;;16.16;26.17;98025.00;8351446;28;20228;-85
2021/04/04 16:33:28;;;;;;;11.70;5.57;;;;;;;16.10;26.32;98022.81;8338260;28;20205;-84
2021/04/04 16:37:37;;;;;;;11.00;4.97;;;;;;;15.90;26.36;98017.13;8327329;28;20209;-84
2021/04/04 16:41:39;;;;;;;10.87;5.13;;;;;;;15.54;26.86;98013.31;8312890;28;20259;-84
2021/04/04 16:45:41;;;;;;;9.67;4.87;;;;;;;15.56;27.15;97997.56;8317180;28;20213;-84
2021/04/04 16:49:45;;;;;;;9.87;5.07;;;;;;;15.70;26.75;97992.28;8344524;28;20236;-84
2021/04/04 16:53:47;;;;;;;10.57;4.57;;;;;;;15.63;26.92;97997.06;8344755;28;20250;-83
2021/04/04 16:57:49;;;;;;;13.60;6.10;;;;;;;15.55;26.96;97982.81;8343231;28;20211;-84
2021/04/04 17:01:52;;;;;;;12.43;5.70;;;;;;;15.41;27.03;97992.38;8343966;28;20197;-83
2021/04/04 17:05:58;;;;;;;11.70;5.00;;;;;;;15.47;27.30;97990.31;8343684;28;20671;-84
2021/04/04 17:10:00;;;;;;;11.07;5.90;;;;;;;15.44;27.57;97991.34;8347324;28;20742;-83
2021/04/04 17:14:02;;;;;;;11.77;5.17;;;;;;;15.24;27.93;97980.38;8343838;28;20219;-83
2021/04/04 17:18:05;;;;;;;15.97;6.13;;;;;;;15.22;28.06;97984.03;8345366;28;20204;-83
2021/04/04 17:22:09;;;;;;;13.03;6.50;;;;;;;15.14;28.64;97981.91;8342509;28;20208;-84
2021/04/04 17:26:11;;;;;;;11.43;5.33;;;;;;;14.98;28.64;97973.38;8337810;28;20699;-85
2021/04/04 17:30:21;;;;;;;10.57;5.37;;;;;;;14.86;29.00;97981.00;8322063;28;20220;-84
2021/04/04 17:34:24;;;;;;;13.73;6.27;;;;;;;14.86;29.34;97974.97;8314423;28;20197;-85
2021/04/04 17:38:28;;;;;;;12.63;6.40;;;;;;;14.74;29.79;97962.69;8329285;28;20201;-86
2021/04/04 17:42:30;;;;;;;13.67;6.00;;;;;;;14.71;29.69;97966.31;8311520;28;20192;-84
2021/04/04 17:46:32;;;;;;;13.37;8.43;;;;;;;14.63;30.11;97969.38;8311871;28;20626;-83
2021/04/04 17:50:34;;;;;;;23.77;12.50;;;;;;;14.55;30.10;97963.78;8318769;28;20258;-83
2021/04/04 17:54:38;;;;;;;22.43;9.90;;;;;;;14.70;36.03;97969.00;8322622;28;20193;-84
2021/04/04 17:58:41;;;;;;;26.83;11.57;;;;;;;15.23;40.70;97975.25;8322712;28;20201;-86
2021/04/04 18:02:48;;;;;;;31.10;16.10;;;;;;;15.26;34.90;97967.25;8316624;28;20197;-86
2021/04/04 18:06:58;;;;;;;19.67;11.07;;;;;;;14.79;30.92;97956.28;8318204;28;20283;-83
2021/04/04 18:11:01;;;;;;;23.03;12.57;;;;;;;14.51;31.21;97962.28;8321687;28;20213;-83
2021/04/04 18:15:05;;;;;;;21.80;11.63;;;;;;;14.22;31.43;97954.47;8322393;28;20287;-83
2021/04/04 18:19:07;;;;;;;19.80;10.90;;;;;;;14.07;32.33;97952.75;8313847;28;20204;-83
2021/04/04 18:23:10;;;;;;;15.83;7.73;;;;;;;13.85;33.04;97960.97;8325988;28;20221;-83
2021/04/04 18:27:15;;;;;;;17.87;7.57;;;;;;;13.81;33.03;97955.09;8335307;28;20205;-83
2021/04/04 18:31:21;;;;;;;14.20;7.90;;;;;;;13.63;33.07;97963.94;8319751;28;20225;-83
2021/04/04 18:35:25;;;;;;;21.40;15.87;;;;;;;13.56;33.41;97957.44;8310263;28;20177;-84
2021/04/04 18:39:27;;;;;;;15.17;8.20;;;;;;;13.38;33.81;97962.72;8330630;28;20224;-83
2021/04/04 18:43:30;;;;;;;14.23;7.23;;;;;;;13.26;34.00;97959.00;8316342;28;20205;-83
2021/04/04 18:47:33;;;;;;;16.00;7.70;;;;;;;13.11;34.18;97963.28;8317891;28;20656;-83
2021/04/04 18:51:36;;;;;;;13.47;7.20;;;;;;;13.10;34.61;97951.22;8318302;28;20650;-83
2021/04/04 18:55:38;;;;;;;17.27;8.17;;;;;;;13.10;34.87;97955.59;8323740;28;20197;-83
2021/04/04 18:59:41;;;;;;;20.20;10.53;;;;;;;13.08;34.95;97958.28;8325284;28;20201;-83
2021/04/04 19:03:43;;;;;;;26.80;17.23;;;;;;;12.95;35.05;97954.66;8323623;28;20197;-83
2021/04/04 19:07:47;;;;;;;19.07;11.00;;;;;;;12.76;35.24;97938.41;8324666;28;20197;-84
2021/04/04 19:11:50;;;;;;;20.67;12.40;;;;;;;12.70;35.48;97939.56;8321562;28;20220;-83
2021/04/04 19:15:53;;;;;;;23.03;14.13;;;;;;;12.68;35.59;97944.00;8324429;28;20250;-83